createdAt,value
2022-12-04T00:01:13.692Z,101873.72
2022-12-04T00:03:42.023Z,101881.75
2022-12-04T00:06:11.591Z,101880.22
2022-12-04T00:08:39.649Z,101877.47
2022-12-04T00:11:10.779Z,101879.72
2022-12-04T00:13:39.296Z,101887.00
2022-12-04T00:16:08.877Z,101881.66
2022-12-04T00:18:37.026Z,101880.50
2022-12-04T00:21:05.963Z,101876.28
2022-12-04T00:23:34.145Z,101872.81
2022-12-04T00:26:02.678Z,101865.84
2022-12-04T00:28:31.855Z,101870.91
2022-12-04T00:30:59.634Z,101862.09
2022-12-04T00:33:27.603Z,101855.09
2022-12-04T00:35:59.000Z,101856.66
2022-12-04T00:38:26.722Z,101857.84
2022-12-04T00:40:54.921Z,101853.19
2022-12-04T00:43:23.808Z,101858.56
2022-12-04T00:45:53.058Z,101855.91
2022-12-04T00:48:20.956Z,101857.47
2022-12-04T00:50:48.702Z,101855.56
2022-12-04T00:53:16.715Z,101853.31
2022-12-04T00:55:45.236Z,101854.03
2022-12-04T00:58:13.168Z,101859.41
2022-12-04T01:00:42.566Z,101849.34
2022-12-04T01:03:11.797Z,101856.34
2022-12-04T01:05:40.697Z,101854.78
2022-12-04T01:08:08.882Z,101856.34
2022-12-04T01:10:39.634Z,101857.47
2022-12-04T01:13:07.510Z,101857.47
2022-12-04T01:15:39.685Z,101852.84
2022-12-04T01:18:07.868Z,101854.03
2022-12-04T01:20:36.977Z,101855.53
2022-12-04T01:23:04.890Z,101855.63
2022-12-04T01:25:32.890Z,101853.38
2022-12-04T01:28:00.712Z,101851.03
2022-12-04T01:30:28.826Z,101850.72
2022-12-04T01:32:56.581Z,101852.75
2022-12-04T01:35:24.356Z,101861.28
2022-12-04T01:37:53.449Z,101860.16
2022-12-04T01:40:21.185Z,101850.09
2022-12-04T01:42:48.939Z,101848.25
2022-12-04T01:45:37.833Z,101849.34
2022-12-04T01:48:18.789Z,101846.66
2022-12-04T01:50:48.656Z,101845.81
2022-12-04T01:53:19.132Z,101843.44
2022-12-04T01:55:48.692Z,101853.75
2022-12-04T01:58:18.540Z,101850.41
2022-12-04T02:00:51.513Z,101853.84
2022-12-04T02:03:20.037Z,101859.94
2022-12-04T02:05:47.767Z,101854.19
2022-12-04T02:08:17.116Z,101857.28
2022-12-04T02:10:52.514Z,101855.78
2022-12-04T02:13:27.275Z,101862.72
2022-12-04T02:16:04.554Z,101859.19
2022-12-04T02:18:36.578Z,101856.56
2022-12-04T02:21:10.002Z,101852.78
2022-12-04T02:24:02.635Z,101854.28
2022-12-04T02:26:41.069Z,101856.56
2022-12-04T02:29:15.304Z,101851.25
2022-12-04T02:31:50.032Z,101857.41
2022-12-04T02:34:24.564Z,101850.06
2022-12-04T02:37:00.657Z,101855.09
2022-12-04T02:39:35.402Z,101852.44
2022-12-04T02:42:10.136Z,101852.41
2022-12-04T02:44:43.255Z,101852.03
2022-12-04T02:47:14.551Z,101850.81
2022-12-04T02:49:47.292Z,101848.91
2022-12-04T02:52:23.799Z,101839.69
2022-12-04T02:54:56.731Z,101839.69
2022-12-04T02:57:40.148Z,101831.19
2022-12-04T03:00:11.318Z,101835.06
2022-12-04T03:02:44.671Z,101838.59
2022-12-04T03:05:16.788Z,101828.69
2022-12-04T03:07:47.935Z,101831.19
2022-12-04T03:10:19.621Z,101833.59
2022-12-04T03:12:51.922Z,101828.63
2022-12-04T03:15:26.719Z,101828.28
2022-12-04T03:17:59.444Z,101823.16
2022-12-04T03:20:28.103Z,101816.25
2022-12-04T03:23:00.592Z,101816.25
2022-12-04T03:25:35.816Z,101808.91
2022-12-04T03:28:08.901Z,101804.00
2022-12-04T03:30:43.147Z,101811.31
2022-12-04T03:33:16.266Z,101809.03
2022-12-04T03:35:50.933Z,101800.13
2022-12-04T03:38:24.042Z,101805.16
2022-12-04T03:41:03.429Z,101805.94
2022-12-04T03:43:37.412Z,101809.78
2022-12-04T03:46:12.692Z,101800.97
2022-12-04T03:48:45.124Z,101807.03
2022-12-04T03:51:19.328Z,101813.91
2022-12-04T03:53:53.812Z,101807.03
2022-12-04T03:56:24.326Z,101810.91
2022-12-04T03:58:56.481Z,101820.19
2022-12-04T04:01:32.077Z,101815.19
2022-12-04T04:04:04.473Z,101810.56
2022-12-04T04:06:37.853Z,101810.56
2022-12-04T04:09:11.793Z,101809.34
2022-12-04T04:11:44.230Z,101807.41
2022-12-04T04:14:34.429Z,101811.72
2022-12-04T04:17:26.900Z,101808.28
2022-12-04T04:20:17.708Z,101804.41
2022-12-04T04:23:06.775Z,101809.03
2022-12-04T04:25:37.464Z,101810.13
2022-12-04T04:28:05.198Z,101806.59
2022-12-04T04:30:35.275Z,101801.94
2022-12-04T04:33:10.507Z,101803.38
2022-12-04T04:35:48.215Z,101798.00
2022-12-04T04:38:26.587Z,101806.81
2022-12-04T04:41:00.153Z,101802.22
2022-12-04T04:43:35.476Z,101807.97
2022-12-04T04:46:07.987Z,101807.97
2022-12-04T04:48:42.051Z,101810.25
2022-12-04T04:51:11.358Z,101806.81
2022-12-04T04:53:43.320Z,101805.28
2022-12-04T04:56:11.363Z,101808.75
2022-12-04T04:58:39.147Z,101801.03
2022-12-04T05:01:09.808Z,101803.34
2022-12-04T05:03:39.391Z,101807.56
2022-12-04T05:06:07.430Z,101805.28
2022-12-04T05:08:35.909Z,101802.59
2022-12-04T05:11:04.194Z,101816.38
2022-12-04T05:13:32.800Z,101808.63
2022-12-04T05:16:02.656Z,101809.78
2022-12-04T05:18:30.676Z,101803.25
2022-12-04T05:20:58.871Z,101812.09
2022-12-04T05:23:26.792Z,101805.59
2022-12-04T05:26:00.263Z,101817.44
2022-12-04T05:28:28.614Z,101819.03
2022-12-04T05:30:57.305Z,101822.94
2022-12-04T05:33:25.571Z,101824.13
2022-12-04T05:36:02.433Z,101825.63
2022-12-04T05:38:30.598Z,101825.63
2022-12-04T05:40:59.109Z,101830.97
2022-12-04T05:43:27.519Z,101825.63
2022-12-04T05:45:55.320Z,101833.00
2022-12-04T05:48:23.084Z,101831.91
2022-12-04T05:50:50.796Z,101826.09
2022-12-04T05:53:19.901Z,101819.53
2022-12-04T05:55:55.408Z,101821.50
2022-12-04T05:58:23.131Z,101819.25
2022-12-04T06:00:50.868Z,101816.97
2022-12-04T06:03:18.982Z,101820.44
2022-12-04T06:05:47.045Z,101811.63
2022-12-04T06:08:15.271Z,101813.91
2022-12-04T06:10:44.447Z,101808.13
2022-12-04T06:13:12.246Z,101807.72
2022-12-04T06:15:41.224Z,101817.25
2022-12-04T06:18:09.316Z,101818.41
2022-12-04T06:20:37.194Z,101806.94
2022-12-04T06:23:05.044Z,101812.31
2022-12-04T06:25:32.770Z,101810.81
2022-12-04T06:28:01.882Z,101822.75
2022-12-04T06:30:30.303Z,101820.78
2022-12-04T06:32:58.057Z,101814.72
2022-12-04T06:35:25.920Z,101820.13
2022-12-04T06:37:53.696Z,101817.06
2022-12-04T06:40:21.448Z,101817.84
2022-12-04T06:42:49.272Z,101823.56
2022-12-04T06:45:18.590Z,101824.28
2022-12-04T06:47:46.341Z,101830.84
2022-12-04T06:50:14.101Z,101825.13
2022-12-04T06:52:41.847Z,101814.38
2022-12-04T06:55:09.959Z,101815.88
2022-12-04T06:57:37.667Z,101823.16
2022-12-04T07:00:06.620Z,101824.66
2022-12-04T07:02:35.791Z,101810.88
2022-12-04T07:05:03.767Z,101820.47
2022-12-04T07:07:31.493Z,101821.28
2022-12-04T07:09:59.305Z,101819.38
2022-12-04T07:12:27.040Z,101814.81
2022-12-04T07:14:54.762Z,101824.41
2022-12-04T07:17:22.537Z,101817.78
2022-12-04T07:19:51.635Z,101828.13
2022-12-04T07:22:19.458Z,101825.78
2022-12-04T07:24:47.232Z,101830.81
2022-12-04T07:27:14.968Z,101825.47
2022-12-04T07:29:43.656Z,101829.72
2022-12-04T07:32:11.449Z,101828.13
2022-12-04T07:34:39.225Z,101826.97
2022-12-04T07:37:08.337Z,101829.59
2022-12-04T07:39:36.055Z,101823.53
2022-12-04T07:42:03.933Z,101823.16
2022-12-04T07:44:31.981Z,101826.25
2022-12-04T07:46:59.719Z,101831.63
2022-12-04T07:49:28.135Z,101840.06
2022-12-04T07:51:55.867Z,101833.88
2022-12-04T07:54:25.000Z,101831.63
2022-12-04T07:56:52.717Z,101831.94
2022-12-04T07:59:20.586Z,101833.09
2022-12-04T08:01:48.394Z,101835.03
2022-12-04T08:04:16.252Z,101833.13
2022-12-04T08:06:44.183Z,101846.63
2022-12-04T08:09:14.591Z,101840.44
2022-12-04T08:11:44.037Z,101841.25
2022-12-04T08:14:13.487Z,101848.16
2022-12-04T08:16:41.450Z,101858.97
2022-12-04T08:19:09.290Z,101857.03
2022-12-04T08:21:37.116Z,101855.13
2022-12-04T08:24:04.911Z,101855.53
2022-12-04T08:26:33.726Z,101853.31
2022-12-04T08:29:03.985Z,101849.09
2022-12-04T08:31:34.172Z,101852.19
2022-12-04T08:34:03.699Z,101857.91
2022-12-04T08:36:31.618Z,101861.00
2022-12-04T08:38:59.400Z,101865.97
2022-12-04T08:41:28.094Z,101864.84
2022-12-04T08:43:56.425Z,101872.91
2022-12-04T08:46:27.201Z,101872.19
2022-12-04T08:48:55.730Z,101872.66
2022-12-04T08:51:25.697Z,101873.72
2022-12-04T08:53:55.834Z,101877.56
2022-12-04T08:56:24.170Z,101877.50
2022-12-04T08:58:51.964Z,101872.13
2022-12-04T09:01:20.177Z,101878.69
2022-12-04T09:03:49.429Z,101872.97
2022-12-04T09:06:18.135Z,101889.44
2022-12-04T09:08:45.949Z,101883.28
2022-12-04T09:11:16.655Z,101883.25
2022-12-04T09:13:48.369Z,101867.94
2022-12-04T09:16:18.467Z,101866.75
2022-12-04T09:18:46.876Z,101878.28
2022-12-04T09:21:17.996Z,101872.91
2022-12-04T09:23:46.528Z,101871.00
2022-12-04T09:26:21.519Z,101870.28
2022-12-04T09:28:49.889Z,101876.84
2022-12-04T09:31:19.057Z,101875.72
2022-12-04T09:33:46.969Z,101872.75
2022-12-04T09:36:16.985Z,101882.69
2022-12-04T09:38:46.169Z,101883.09
2022-12-04T09:41:31.060Z,101872.34
2022-12-04T09:44:03.097Z,101868.16
2022-12-04T09:46:37.538Z,101868.28
2022-12-04T09:49:11.434Z,101879.72
2022-12-04T09:51:43.141Z,101869.47
2022-12-04T09:54:15.384Z,101876.38
2022-12-04T09:56:46.299Z,101863.34
2022-12-04T09:59:22.131Z,101865.31
2022-12-04T10:01:53.073Z,101871.47
2022-12-04T10:04:20.971Z,101863.69
2022-12-04T10:06:55.865Z,101860.63
2022-12-04T10:09:28.663Z,101853.69
2022-12-04T10:12:08.702Z,101859.91
2022-12-04T10:14:52.119Z,101854.16
2022-12-04T10:17:33.267Z,101860.31
2022-12-04T10:20:12.711Z,101860.25
2022-12-04T10:22:52.657Z,101853.75
2022-12-04T10:25:23.283Z,101857.56
2022-12-04T10:27:54.802Z,101846.50
2022-12-04T10:30:25.022Z,101862.63
2022-12-04T10:32:57.608Z,101848.81
2022-12-04T10:35:29.442Z,101854.94
2022-12-04T10:38:02.836Z,101858.28
2022-12-04T10:40:35.610Z,101864.09
2022-12-04T10:43:12.574Z,101861.41
2022-12-04T10:45:40.482Z,101867.47
2022-12-04T10:48:14.486Z,101859.06
2022-12-04T10:50:42.350Z,101853.69
2022-12-04T10:53:14.089Z,101857.56
2022-12-04T10:55:42.183Z,101854.88
2022-12-04T10:58:16.455Z,101853.75
2022-12-04T11:00:46.319Z,101850.69
2022-12-04T11:03:26.673Z,101846.88
2022-12-04T11:05:57.790Z,101846.09
2022-12-04T11:08:32.138Z,101845.72
2022-12-04T11:11:02.802Z,101846.56
2022-12-04T11:13:30.823Z,101838.84
2022-12-04T11:16:00.161Z,101828.84
2022-12-04T11:18:29.940Z,101841.09
2022-12-04T11:21:01.308Z,101839.25
2022-12-04T11:23:33.197Z,101830.47
2022-12-04T11:26:05.859Z,101842.34
2022-12-04T11:28:43.308Z,101834.34
2022-12-04T11:31:17.487Z,101826.69
2022-12-04T11:33:48.989Z,101832.06
2022-12-04T11:36:22.828Z,101822.53
2022-12-04T11:38:55.235Z,101825.56
2022-12-04T11:41:28.817Z,101821.72
2022-12-04T11:44:00.340Z,101809.47
2022-12-04T11:46:31.214Z,101804.50
2022-12-04T11:48:59.343Z,101812.19
2022-12-04T11:51:40.291Z,101810.78
2022-12-04T11:54:18.607Z,101799.25
2022-12-04T11:56:51.521Z,101787.69
2022-12-04T11:59:55.678Z,101788.03
2022-12-04T12:02:39.748Z,101784.63
2022-12-04T12:05:35.853Z,101778.09
2022-12-04T12:08:13.859Z,101778.88
2022-12-04T12:10:52.260Z,101785.44
2022-12-04T12:13:31.223Z,101778.16
2022-12-04T12:16:09.186Z,101768.13
2022-12-04T12:18:49.703Z,101770.84
2022-12-04T12:21:22.768Z,101763.19
2022-12-04T12:24:04.424Z,101761.63
2022-12-04T12:26:45.825Z,101777.41
2022-12-04T12:29:33.980Z,101770.84
2022-12-04T12:32:12.083Z,101771.28
2022-12-04T12:34:41.867Z,101770.94
2022-12-04T12:37:20.100Z,101772.47
2022-12-04T12:39:56.272Z,101759.41
2022-12-04T12:42:32.026Z,101764.81
2022-12-04T12:45:06.898Z,101765.59
2022-12-04T12:47:41.242Z,101764.03
2022-12-04T12:50:16.712Z,101761.75
2022-12-04T12:52:53.642Z,101761.00
2022-12-04T12:55:24.999Z,101762.91
2022-12-04T12:58:00.131Z,101752.53
2022-12-04T13:00:31.249Z,101761.00
2022-12-04T13:03:03.381Z,101758.31
2022-12-04T13:05:34.808Z,101767.22
2022-12-04T13:08:06.958Z,101763.78
2022-12-04T13:10:38.929Z,101763.78
2022-12-04T13:13:15.082Z,101756.50
2022-12-04T13:15:46.466Z,101740.72
2022-12-04T13:18:21.183Z,101745.69
2022-12-04T13:20:54.068Z,101747.63
2022-12-04T13:23:38.379Z,101745.34
2022-12-04T13:26:15.863Z,101749.91
2022-12-04T13:28:54.563Z,101744.94
2022-12-04T13:34:31.074Z,101742.66
2022-12-04T13:37:06.956Z,101741.84
2022-12-04T13:40:08.555Z,101742.25
2022-12-04T13:42:36.516Z,101745.69
2022-12-04T13:45:11.384Z,101739.16
2022-12-04T13:47:39.407Z,101734.16
2022-12-04T13:50:26.463Z,101735.69
2022-12-04T13:52:56.880Z,101737.28
2022-12-04T13:55:28.476Z,101746.09
2022-12-04T13:57:58.523Z,101748.78
2022-12-04T14:00:31.508Z,101753.75
2022-12-04T14:03:02.272Z,101753.41
2022-12-04T14:05:34.117Z,101764.94
2022-12-04T14:08:07.720Z,101760.38
2022-12-04T14:10:38.961Z,101758.78
2022-12-04T14:13:17.111Z,101759.50
2022-12-04T14:15:47.026Z,101760.66
2022-12-04T14:18:25.844Z,101764.88
2022-12-04T14:21:01.296Z,101767.97
2022-12-04T14:23:36.259Z,101771.44
2022-12-04T14:26:05.394Z,101766.88
2022-12-04T14:28:43.796Z,101760.69
2022-12-04T14:31:25.077Z,101762.59
2022-12-04T14:33:57.259Z,101756.38
2022-12-04T14:36:28.046Z,101754.84
2022-12-04T14:39:06.318Z,101758.25
2022-12-04T14:41:34.291Z,101760.53
2022-12-04T14:44:02.196Z,101758.66
2022-12-04T14:46:41.139Z,101756.34
2022-12-04T14:49:22.777Z,101762.88
2022-12-04T14:52:00.848Z,101764.41
2022-12-04T14:54:39.840Z,101760.94
2022-12-04T14:57:22.530Z,101757.50
2022-12-04T14:59:53.456Z,101762.91
2022-12-04T15:02:29.263Z,101758.25
2022-12-04T15:04:57.834Z,101761.00
2022-12-04T15:07:29.494Z,101757.91
2022-12-04T15:10:17.205Z,101761.00
2022-12-04T15:12:48.651Z,101758.31
2022-12-04T15:15:19.407Z,101757.91
2022-12-04T15:18:02.740Z,101745.56
2022-12-04T15:20:38.814Z,101756.34
2022-12-04T15:23:07.360Z,101757.84
2022-12-04T15:25:41.176Z,101762.47
2022-12-04T15:28:15.030Z,101762.47
2022-12-04T15:30:44.700Z,101757.50
2022-12-04T15:33:21.446Z,101760.94
2022-12-04T15:35:53.749Z,101757.50
2022-12-04T15:38:21.912Z,101760.53
2022-12-04T15:40:57.778Z,101765.97
2022-12-04T15:43:31.327Z,101769.41
2022-12-04T15:45:59.689Z,101772.84
2022-12-04T15:48:30.920Z,101774.38
2022-12-04T15:51:01.783Z,101778.19
2022-12-04T15:53:32.819Z,101774.72
2022-12-04T15:56:04.030Z,101784.72
2022-12-04T15:58:33.731Z,101780.50
2022-12-04T16:01:03.430Z,101789.34
2022-12-04T16:03:35.436Z,101787.81
2022-12-04T16:06:09.760Z,101780.91
2022-12-04T16:08:40.400Z,101785.59
2022-12-04T16:11:25.443Z,101789.47
2022-12-04T16:14:05.386Z,101791.41
2022-12-04T16:16:33.164Z,101791.81
2022-12-04T16:19:05.020Z,101793.38
2022-12-04T16:21:33.113Z,101789.13
2022-12-04T16:24:04.473Z,101789.53
2022-12-04T16:26:32.462Z,101796.09
2022-12-04T16:29:00.575Z,101805.72
2022-12-04T16:31:28.520Z,101794.94
2022-12-04T16:33:56.386Z,101788.81
2022-12-04T16:36:25.568Z,101789.63
2022-12-04T16:38:54.147Z,101778.09
2022-12-04T16:41:22.328Z,101788.47
2022-12-04T16:43:54.886Z,101783.88
2022-12-04T16:46:25.451Z,101790.44
2022-12-04T16:48:53.806Z,101793.56
2022-12-04T16:51:23.406Z,101793.97
2022-12-04T16:53:53.452Z,101795.88
2022-12-04T16:56:21.778Z,101793.59
2022-12-04T16:58:51.643Z,101794.72
2022-12-04T17:01:24.284Z,101788.97
2022-12-04T17:03:52.735Z,101788.63
2022-12-04T17:06:20.858Z,101787.88
2022-12-04T17:08:48.603Z,101787.09
2022-12-04T17:11:19.344Z,101784.41
2022-12-04T17:13:47.472Z,101783.63
2022-12-04T17:16:17.647Z,101794.03
2022-12-04T17:18:47.568Z,101788.72
2022-12-04T17:21:16.025Z,101787.16
2022-12-04T17:23:44.492Z,101788.31
2022-12-04T17:26:14.356Z,101784.47
2022-12-04T17:28:43.663Z,101788.72
2022-12-04T17:31:15.605Z,101792.97
2022-12-04T17:33:44.041Z,101788.00
2022-12-04T17:36:13.396Z,101796.09
2022-12-04T17:38:41.739Z,101791.88
2022-12-04T17:41:13.649Z,101790.34
2022-12-04T17:43:43.627Z,101787.66
2022-12-04T17:46:12.907Z,101807.25
2022-12-04T17:48:41.148Z,101801.09
2022-12-04T17:51:10.694Z,101809.19
2022-12-04T17:53:39.325Z,101810.34
2022-12-04T17:56:09.297Z,101816.09
2022-12-04T17:58:37.409Z,101807.66
2022-12-04T18:01:09.469Z,101798.84
2022-12-04T18:03:37.995Z,101803.09
2022-12-04T18:06:12.948Z,101800.81
2022-12-04T18:08:44.078Z,101802.72
2022-12-04T18:11:16.112Z,101812.34
2022-12-04T18:13:43.863Z,101805.44
2022-12-04T18:16:13.413Z,101817.38
2022-12-04T18:18:41.357Z,101820.06
2022-12-04T18:21:10.969Z,101815.47
2022-12-04T18:23:44.430Z,101820.84
2022-12-04T18:26:13.742Z,101817.44
2022-12-04T18:28:41.880Z,101830.13
2022-12-04T18:31:10.721Z,101819.38
2022-12-04T18:33:41.139Z,101827.84
2022-12-04T18:36:12.999Z,101823.63
2022-12-04T18:38:40.753Z,101833.63
2022-12-04T18:41:10.414Z,101840.53
2022-12-04T18:43:40.083Z,101830.09
2022-12-04T18:46:09.728Z,101822.00
2022-12-04T18:48:39.907Z,101819.31
2022-12-04T18:51:16.235Z,101822.41
2022-12-04T18:53:44.434Z,101821.28
2022-12-04T18:56:12.241Z,101818.19
2022-12-04T18:58:39.991Z,101825.91
2022-12-04T19:01:08.094Z,101830.91
2022-12-04T19:03:36.401Z,101819.38
2022-12-04T19:06:05.719Z,101821.28
2022-12-04T19:08:38.660Z,101822.41
2022-12-04T19:11:11.638Z,101821.31
2022-12-04T19:13:39.509Z,101824.38
2022-12-04T19:16:12.314Z,101831.66
2022-12-04T19:18:40.273Z,101822.09
2022-12-04T19:21:09.738Z,101810.13
2022-12-04T19:23:37.670Z,101824.78
2022-12-04T19:26:05.779Z,101819.41
2022-12-04T19:28:33.836Z,101825.16
2022-12-04T19:31:01.753Z,101820.19
2022-12-04T19:33:29.847Z,101812.88
2022-12-04T19:35:59.163Z,101820.19
2022-12-04T19:38:28.984Z,101829.78
2022-12-04T19:41:05.078Z,101824.03
2022-12-04T19:43:32.954Z,101825.97
2022-12-04T19:46:00.815Z,101824.44
2022-12-04T19:48:28.899Z,101835.97
2022-12-04T19:50:56.736Z,101826.75
2022-12-04T19:53:24.509Z,101827.16
2022-12-04T19:55:53.638Z,101826.03
2022-12-04T19:58:21.541Z,101823.31
2022-12-04T20:00:49.348Z,101826.78
2022-12-04T20:03:17.177Z,101827.19
2022-12-04T20:05:44.902Z,101828.75
2022-12-04T20:10:39.472Z,101828.31
2022-12-04T20:13:08.609Z,101834.81
2022-12-04T20:15:36.756Z,101829.06
2022-12-04T20:18:04.987Z,101830.22
2022-12-04T20:20:33.007Z,101827.50
2022-12-04T20:23:00.826Z,101832.13
2022-12-04T20:25:28.629Z,101829.03
2022-12-04T20:27:56.413Z,101830.97
2022-12-04T20:30:25.678Z,101821.75
2022-12-04T20:32:53.529Z,101827.53
2022-12-04T20:35:21.324Z,101816.78
2022-12-04T20:37:49.255Z,101822.53
2022-12-04T20:40:17.446Z,101814.09
2022-12-04T20:42:45.356Z,101816.03
2022-12-04T20:45:13.205Z,101821.81
2022-12-04T20:47:42.356Z,101821.81
2022-12-04T20:50:11.057Z,101828.00
2022-12-04T20:52:39.419Z,101825.31
2022-12-04T20:55:08.952Z,101831.88
2022-12-04T20:57:37.424Z,101831.09
2022-12-04T21:00:10.974Z,101830.34
2022-12-04T21:02:58.466Z,101827.66
2022-12-04T21:05:26.312Z,101820.34
2022-12-04T21:07:54.123Z,101827.69
2022-12-04T21:10:21.946Z,101834.25
2022-12-04T21:13:07.413Z,101839.63
2022-12-04T21:15:54.095Z,101834.63
2022-12-04T21:18:23.244Z,101830.41
2022-12-04T21:20:50.999Z,101830.06
2022-12-04T21:23:19.375Z,101835.47
2022-12-04T21:25:47.095Z,101838.16
2022-12-04T21:28:14.859Z,101833.94
2022-12-04T21:30:42.667Z,101838.94
2022-12-04T21:33:10.449Z,101833.53
2022-12-04T21:35:41.472Z,101833.13
2022-12-04T21:38:09.258Z,101833.94
2022-12-04T21:40:42.165Z,101836.63
2022-12-04T21:43:10.399Z,101835.09
2022-12-04T21:45:38.139Z,101832.81
2022-12-04T21:48:06.250Z,101822.81
2022-12-04T21:50:34.009Z,101828.59
2022-12-04T21:53:03.128Z,101825.16
2022-12-04T21:55:30.915Z,101829.81
2022-12-04T21:57:58.672Z,101822.88
2022-12-04T22:00:26.402Z,101829.06
2022-12-04T22:02:54.131Z,101825.25
2022-12-04T22:05:21.933Z,101836.78
2022-12-04T22:07:49.711Z,101832.22
2022-12-04T22:10:19.030Z,101833.78
2022-12-04T22:12:50.681Z,101834.53
2022-12-04T22:15:19.179Z,101832.63
2022-12-04T22:17:46.933Z,101833.00
2022-12-04T22:20:16.108Z,101827.63
2022-12-04T22:22:43.932Z,101833.41
2022-12-04T22:25:11.799Z,101822.97
2022-12-04T22:27:40.917Z,101830.69
2022-12-04T22:30:09.678Z,101832.25
2022-12-04T22:32:37.456Z,101816.81
2022-12-04T22:35:05.749Z,101818.78
2022-12-04T22:37:33.699Z,101818.06
2022-12-04T22:40:01.578Z,101828.44
2022-12-04T22:42:29.419Z,101823.41
2022-12-04T22:44:58.588Z,101834.56
2022-12-04T22:47:26.425Z,101829.19
2022-12-04T22:49:54.432Z,101826.88
2022-12-04T22:52:22.364Z,101831.50
2022-12-04T22:54:51.155Z,101831.09
2022-12-04T22:57:19.494Z,101826.88
2022-12-04T22:59:47.418Z,101831.53
2022-12-04T23:02:16.559Z,101827.66
2022-12-04T23:04:44.439Z,101830.38
2022-12-04T23:07:12.339Z,101827.31
2022-12-04T23:09:40.519Z,101819.59
2022-12-04T23:12:08.385Z,101819.22
2022-12-04T23:14:36.934Z,101818.03
2022-12-04T23:17:05.202Z,101823.47
2022-12-04T23:19:34.394Z,101815.78
2022-12-04T23:22:02.121Z,101814.25
2022-12-04T23:24:29.859Z,101809.63
2022-12-04T23:26:57.608Z,101814.25
2022-12-04T23:32:13.111Z,101815.41
2022-12-04T23:34:42.169Z,101809.63
2022-12-04T23:37:10.321Z,101815.41
2022-12-04T23:39:38.095Z,101805.78
2022-12-04T23:42:05.892Z,101816.97
2022-12-04T23:44:33.648Z,101817.38
2022-12-04T23:47:01.465Z,101816.22
2022-12-04T23:49:29.451Z,101816.97
2022-12-04T23:51:58.607Z,101819.31
2022-12-04T23:54:27.241Z,101816.25
2022-12-04T23:56:55.885Z,101820.88
2022-12-04T23:59:23.628Z,101812.75
